Fyodor Pluzhnikov

Chief Scout - Spartak Moscow
19 Nov 2028
Sunday
Process

Personality

Adaptability (10) Ambition (7) Controversy (19) Loyalty (17) Pressure (13) Professionalism (8) Sportsmanship (8) Temperament (15)

Profile

Coaching Style Democratic
License Continental Pro
Determination 8
Man Management 10
Motivating 10
Discipline 9
Job Satisfaction
100%
Fatigue
0%
Role Chief Scout
Wage 93.3K p/w
Contract 14.03.2030

Performance

Behaviour Good
Training Effectiveness
50%
Player Development
35%
Injury Prevention
65%
Tactical Implementation
65%

Recent Events

Recommended a transfer target now
Recommended a transfer target now
Recommended a transfer target now
Recommended a transfer target now
Recommended a transfer target now
Assessed a player now
Assessed a player now
Assessed a player now

Currently Monitoring

168
Player Club Status Ability Confidence Watched Last Observed Latest Vote
Luciano Jachfe Nueva Chicago Active 127 / 126 40% 12 18.11.2028 -
Facundo Sanguinetti Banfield Active 135 / 122 40% 6 18.11.2028 -
Radek Vítek Middlesbrough Active 152 / 148 40% 3 17.11.2028 -
Mark Travers Leicester City Active 148 / 144 40% 3 17.11.2028 -
Lukas Jensen Millwall Active 129 / 124 40% 1 17.11.2028 -
Jonmi Magunagoitia Eibar Active 139 / 138 40% 9 16.11.2028 -
Unai Marrero Real Sociedad Active 144 / 139 40% 6 16.11.2028 -
Lukáš Horníček Burnley Active 155 / 154 40% 6 16.11.2028 -
Alexei Rojas Fedorushchenko Barrow AFC Active 131 / 135 40% 2 15.11.2028 -
Leandro Brey Boca Juniors Active 141 / 140 40% 2 15.11.2028 -
Sol Brynn Bradford City Active 138 / 139 40% 5 13.11.2028 -
Christos Mandas Lazio Active 151 / 149 40% 7 13.11.2028 -
Robin Roefs Sunderland Active 152 / 152 40% 6 10.11.2028 -
Caoimhin Kelleher Brentford Active 158 / 157 40% 3 09.11.2028 -
James Trafford Leeds United Active 155 / 154 40% 6 08.11.2028 -
Lucas Cuevas Rosario Central Active 125 / 129 40% 1 08.11.2028 -
George Wickens Blackpool Active 130 / 131 40% 6 07.11.2028 -
Alexandr Koryakin Krasnodar Active 121 / 116 40% 5 07.11.2028 -
Luis Ingolotti Atlético Tucumán Active 130 / 129 40% 4 06.11.2028 -
Teddy Sharman-Lowe Barnsley Active 133 / 135 40% 2 06.11.2028 -
Murphy Cooper Plymouth Argyle Active 133 / 132 40% 1 06.11.2028 -
Abduvohid Ne'matov Nasaf Active 133 / 131 40% 7 05.11.2028 -
Federico Losas Chacarita Juniors Active 120 / 126 40% 3 05.11.2028 -
Kostantis Tzolakis Brighton Active 157 / 154 40% 3 03.11.2028 -
James Beadle Hull City Active 146 / 150 40% 7 02.11.2028 -
Lautaro Morales Lanús Active 140 / 130 40% 4 01.11.2028 -
Joseph Leclercq Tottenham Active 165 / 163 40% 2 31.10.2028 -
Samuel Brolin Kalmar FF Active 131 / 129 40% 2 31.10.2028 -
Mads Hermansen West Ham United Active 148 / 148 40% 4 30.10.2028 -
Joaquín Blázquez Talleres Active 125 / 119 40% 5 28.10.2028 -
Oliver Dovin Coventry City Active 144 / 146 40% 5 25.10.2028 -
Sam Proctor Salford City Active 125 / 128 40% 2 19.10.2028 -
Giorgi Mamardashvili Liverpool Active 171 / 168 40% 1 09.10.2028 -
Filip Marschall Stevenage Active 128 / 130 40% 3 06.10.2028 -
Antonín Kinský Tottenham Active 158 / 154 40% 2 17.09.2028 -
Stanislav Agkatsev Brentford Rejected 149 / 151 66% 2 04.09.2028 Reject
Gustavo Santos Krasnodar Report Ready 129 / 119 86% 1 31.07.2028 -
Yerson Mosquera Wolverhampton Active 146 / 149 40% 7 18.07.2028 -
Max Bird Birmingham Active 143 / 142 40% 7 18.07.2028 -
Vitaly Janelt Derby County Active 150 / 148 40% 1 18.07.2028 -
Sander Berge Derby County Lost 150 / 148 40% 1 11.07.2028 -
Kenny Tete Fulham Lost 148 / 149 40% 1 11.07.2028 -
Harry Clarke Preston Active 139 / 140 40% 3 10.07.2028 -
Callum Brittain Middlesbrough Active 138 / 135 40% 2 10.07.2028 -
Timothy Castagne Stoke City Lost 145 / 139 40% 1 27.06.2028 -
Max Johnston Derby County Active 138 / 133 40% 9 26.06.2028 -
Juanlu Bournemouth Active 156 / 160 40% 5 26.06.2028 -
Ivan Oleinikov Krylya Sovetov Report Ready 121 / 121 86% 1 26.06.2028 Approve
Derry Murkin Derby County Active 137 / 132 40% 1 26.06.2028 -
Jhon Solís Birmingham Active 139 / 142 40% 5 20.06.2028 -
Jayden Bogle Leeds United Active 147 / 145 40% 9 20.06.2028 -
James Justin Leeds United Active 146 / 139 40% 2 20.06.2028 -
Aidan Morris Middlesbrough Active 136 / 134 40% 1 19.06.2028 -
Óscar Mingueza Crystal Palace Active 159 / 151 40% 1 17.06.2028 -
Maksim Samorodov Akhmat Grozny Lost 125 / 130 86% 1 15.06.2028 -
Andrey Santos Bolton Wanderers Active 149 / 147 40% 9 12.06.2028 -
Oliver Skipp Leicester City Active 141 / 140 40% 2 12.06.2028 -
Welington Southampton Active 139 / 135 40% 5 11.06.2028 -
Jacques Ekomié Wrexham Active 138 / 135 40% 3 11.06.2028 -
André Wolverhampton Active 153 / 151 40% 7 10.06.2028 -
Justin Devenny Stoke City Active 132 / 132 40% 1 10.06.2028 -
Ronnie Edwards Queens Park Rangers Active 137 / 135 40% 2 09.06.2028 -
Brooke Norton-Cuffy Hull City Active 144 / 148 40% 3 08.06.2028 -
Pelle Mattsson Norwich City Active 132 / 135 40% 2 08.06.2028 -
James Garner Everton Active 157 / 158 40% 7 07.06.2028 -
Tristan Crama Wycombe Wanderers Active 131 / 130 40% 4 06.06.2028 -
Lewis Bate Stockport County Active 130 / 134 40% 1 04.06.2028 -
Teden Mengi Luton Town Active 130 / 130 40% 1 04.06.2028 -
Sydie Peck Swindon Town Active 133 / 138 40% 2 30.05.2028 -
Adam Wharton Crystal Palace Active 158 / 158 40% 1 30.05.2028 -
Charlie Hughes Chesterfield Active 135 / 140 40% 4 29.05.2028 -
Alex Scott Bournemouth Active 157 / 157 40% 3 21.05.2028 -
Shea Charles Southampton Active 145 / 142 40% 3 21.05.2028 -
Christoph Klarer Birmingham Active 133 / 133 40% 1 18.05.2028 -
Tariq Lamptey Queens Park Rangers Active 142 / 142 40% 1 17.05.2028 -
Yehor Yarmoliuk Brentford Active 156 / 155 40% 1 17.05.2028 -
Jacob Greaves Ipswich Town Active 141 / 146 40% 3 14.05.2028 -
Riccardo Calafiori Burnley Active 162 / 160 40% 1 13.05.2028 -
Malick Thiaw Ipswich Town Active 157 / 155 40% 1 13.05.2028 -
Ben Nelson Leicester City Active 140 / 142 40% 3 11.05.2028 -
Nathan Collins Brentford Active 155 / 156 40% 4 02.05.2028 -
Tim Iroegbunam Peterborough United Active 143 / 143 40% 2 29.04.2028 -
Ryan Sessegnon Fulham Active 150 / 148 40% 4 22.04.2028 -
Jake O'Brien Everton Active 152 / 150 40% 3 19.04.2028 -
Toby Collyer West Bromwich Albion Active 138 / 140 40% 2 16.04.2028 -
Lucas Da Cunha Como Active 148 / 145 40% 3 14.04.2028 -
Marco Palestra Everton Active 146 / 151 40% 1 07.04.2028 -
Milan van Ewijk Coventry City Active 138 / 135 40% 1 03.04.2028 -
Manuel Ugarte Leicester City Active 150 / 153 40% 3 01.04.2028 -
Keane Lewis-Potter Brentford Active 149 / 147 40% 1 01.04.2028 -
Matteo Ruggeri Middlesbrough Active 157 / 155 40% 3 31.03.2028 -
Archie Gray Southampton Active 151 / 157 40% 2 31.03.2028 -
Yasin Ayari Middlesbrough Active 151 / 150 40% 1 30.03.2028 -
Honest Ahanor Atalanta Active 134 / 144 40% 11 29.03.2028 -
Neco Williams Wrexham Active 152 / 144 40% 1 29.03.2028 -
Patrick Dorgu Bristol City Active 150 / 147 40% 1 21.03.2028 -
Jordan Beyer Burnley Active 141 / 141 40% 1 20.03.2028 -
Quilindschy Hartman Burnley Active 150 / 145 40% 1 19.03.2028 -
Bobby Thomas Grimsby Town Active 140 / 142 40% 1 09.03.2028 -
Emil Holm Bologna Active 149 / 146 40% 7 21.02.2028 -
Adrián Bernabé Parma Active 143 / 147 40% 6 21.02.2028 -
Giorgio Scalvini Atalanta Active 157 / 159 40% 4 15.02.2028 -
Khéphren Thuram Juventus Active 162 / 166 40% 7 13.02.2028 -
Wesley AS Roma Active 153 / 149 40% 1 13.02.2028 -
Eivind Helland AC Milan Active 139 / 142 40% 8 12.02.2028 -
Ângelo Al-Hilal Active 143 / 145 40% 3 12.02.2028 -
Ignace Van Der Brempt Como Active 142 / 143 40% 2 11.02.2028 -
Hans Nicolussi Caviglia Parma Active 141 / 139 40% 1 11.02.2028 -
Devyne Rensch Virtus Entella Active 148 / 151 40% 3 09.02.2028 -
Enzo Millot Al-Ahli Active 153 / 151 40% 6 08.02.2028 -
Matteo Prati Cagliari Active 137 / 136 40% 4 02.02.2028 -
Odilon Kossounou Atalanta Active 150 / 152 40% 3 29.01.2028 -
Andrea Cambiaso Juventus Active 156 / 151 40% 8 26.01.2028 -
Igoh Ogbu Ajax Active 147 / 148 79% 1 25.01.2028 Approve
Facundo Torres Millonarios Active 134 / 134 67% 1 25.01.2028 Approve
Nicolás Fernández Mercau Club America Active 134 / 134 67% 1 25.01.2028 -
Boulaye Dia Lazio Active 142 / 148 40% 1 25.01.2028 -
Gianluca Scamacca Atalanta Active 154 / 153 40% 1 25.01.2028 -
Mateo Pellegrino Fiorentina Active 144 / 146 40% 1 25.01.2028 -
Nicolò Fagioli Fiorentina Active 149 / 149 40% 2 23.01.2028 -
Nikita Krivtsov Krasnodar Active 136 / 129 40% 13 22.01.2028 -
Yacine Adli Al-Shabab Active 145 / 142 40% 3 21.01.2028 -
Curtis Jones Inter Active 162 / 159 40% 5 21.01.2028 -
Oumar Solet Udinese Active 155 / 151 40% 2 19.01.2028 -
Rafa Marín Pisa Active 157 / 152 40% 5 13.01.2028 -
Tommaso Barbieri Cremonese Active 142 / 134 40% 1 09.01.2028 -
Alexandr Chernikov Krasnodar Active 135 / 134 40% 9 08.01.2028 -
Dion Lopy Al-Ittihad Active 133 / 127 40% 4 05.01.2028 -
Manu Koné AS Roma Active 167 / 168 40% 1 02.01.2028 -
Trai Hume Aston Villa Active 137 / 140 40% 5 17.12.2027 -
Antonino Gallo Bari Active 141 / 142 40% 1 17.12.2027 -
Roméo Lavia Chelsea Active 156 / 160 40% 1 16.12.2027 -
El Hadji Malick Diouf Inter Active 148 / 149 40% 7 08.12.2027 -
Josh Acheampong Everton Active 140 / 149 40% 4 14.11.2027 -
Eliás Montiel Borussia Dortmund Active 138 / 141 40% 5 12.11.2027 -
Soungoutou Magassa West Ham United Active 143 / 142 40% 2 24.10.2027 -
Pedro Bicalho Qarabag Active 134 / 132 40% 2 20.10.2027 -
Luka Vušković Tottenham Active 148 / 154 40% 1 07.10.2027 -
Unai Eguíluz Athletic Bilbao Active 131 / 132 40% 2 04.10.2027 -
Owen Beck Liverpool Active 133 / 133 40% 4 30.08.2027 -
Callum Doyle Newcastle United Active 133 / 141 40% 2 23.08.2027 -
Arsenii Batahov Trabzonspor Active 136 / 133 40% 1 09.08.2027 -
Juan David Cabal Juventus Active 143 / 145 40% 8 02.08.2027 -
Alessandro Zanoli Udinese Active 131 / 130 40% 1 22.07.2027 -
Maxim De Cuyper Brighton Active 142 / 141 40% 4 20.07.2027 -
Zakaria El Ouahdi Hamburger SV Active 135 / 130 40% 1 19.07.2027 -
Justin de Haas Valencia Active 131 / 136 40% 1 12.07.2027 -
Álvaro Núñez Celta Active 134 / 128 40% 1 04.07.2027 -
Jens Cajuste Napoli Active 138 / 138 40% 1 04.07.2027 -
Jorge Cuenca Fulham Active 144 / 143 40% 1 02.07.2027 -
Iliya Gruev Leeds United Active 131 / 129 40% 1 22.06.2027 -
Max Rosenfelder SC Freiburg Active 138 / 133 40% 1 18.06.2027 -
Alexander Prass TSG Hoffenheim Active 136 / 137 40% 2 17.06.2027 -
Franculino Brighton Active 138 / 139 40% 9 27.05.2027 -
Mathys Tel Tottenham Active 143 / 142 40% 13 24.05.2027 -
Eduardo Lozano Botafogo Active 148 / 157 40% 13 24.05.2027 -
Carlos Vinícius Grêmio Active 132 / 147 40% 4 25.03.2027 -
Brayan Gil Baltika Active 120 / 115 83% 1 26.01.2027 Approve
Dmitry Vasiljev Orenburg Active 117 / 112 83% 1 25.01.2027 Approve
Ferland Mendy Real Madrid Active 144 / 145 40% 4 15.01.2027 -
Edu Expósito Espanyol Active 139 / 135 40% 5 01.01.2027 -
Diego Gómez Brighton Active 143 / 138 40% 3 29.12.2026 -
Luiz Araújo Flamengo Active 133 / 138 40% 1 29.12.2026 -
Manu Morlanes Mallorca Active 136 / 130 40% 9 27.12.2026 -
Tyrhys Dolan Espanyol Active 140 / 134 40% 2 24.12.2026 -
Wilson Odobert Brighton Active 140 / 142 40% 2 19.12.2026 -
Yves Bissouma Tottenham Active 140 / 143 40% 2 05.11.2026 -
Adrian Šemper Al-Fateh Active 120 / 131 40% 1 02.09.2026 -